sensor_id;sensor_type;location;lat;lon;timestamp;pressure;altitude;pressure_sealevel;temperature;humidity
13241;BME280;6687;47.790;7.322;2023-03-31T06:11:05;97945.63;;;11.38;98.41
13241;BME280;6687;47.790;7.322;2023-03-31T06:13:33;97961.84;;;11.96;93.88
13241;BME280;6687;47.790;7.322;2023-03-31T06:16:00;97969.41;;;12.07;90.96
13241;BME280;6687;47.790;7.322;2023-03-31T06:18:29;97970.25;;;12.07;89.17
13241;BME280;6687;47.790;7.322;2023-03-31T06:20:56;97964.84;;;12.20;87.21
13241;BME280;6687;47.790;7.322;2023-03-31T06:23:24;97958.16;;;12.08;88.51
13241;BME280;6687;47.790;7.322;2023-03-31T06:25:53;97953.72;;;12.13;86.91
13241;BME280;6687;47.790;7.322;2023-03-31T06:28:21;97949.50;;;12.07;86.71
13241;BME280;6687;47.790;7.322;2023-03-31T06:30:47;97937.47;;;12.03;87.37
13241;BME280;6687;47.790;7.322;2023-03-31T06:33:14;97928.66;;;12.10;86.52
13241;BME280;6687;47.790;7.322;2023-03-31T06:35:41;97920.78;;;12.15;85.97
13241;BME280;6687;47.790;7.322;2023-03-31T06:38:08;97919.88;;;11.74;88.30
13241;BME280;6687;47.790;7.322;2023-03-31T06:40:35;97916.47;;;12.16;85.59
13241;BME280;6687;47.790;7.322;2023-03-31T06:43:01;97910.06;;;11.90;87.94
13241;BME280;6687;47.790;7.322;2023-03-31T06:45:29;97906.78;;;11.79;89.06
13241;BME280;6687;47.790;7.322;2023-03-31T06:47:56;97912.09;;;11.72;90.29
13241;BME280;6687;47.790;7.322;2023-03-31T06:50:23;97908.69;;;11.70;91.71
13241;BME280;6687;47.790;7.322;2023-03-31T06:52:49;97923.09;;;11.85;89.95
13241;BME280;6687;47.790;7.322;2023-03-31T06:55:19;97911.81;;;11.88;90.81
13241;BME280;6687;47.790;7.322;2023-03-31T06:57:46;97910.94;;;11.89;90.76
13241;BME280;6687;47.790;7.322;2023-03-31T07:00:13;97922.25;;;11.85;92.05
13241;BME280;6687;47.790;7.322;2023-03-31T07:02:42;97916.63;;;11.63;95.01
13241;BME280;6687;47.790;7.322;2023-03-31T07:05:08;97923.44;;;11.68;95.26
13241;BME280;6687;47.790;7.322;2023-03-31T07:07:35;97917.84;;;11.90;94.51
13241;BME280;6687;47.790;7.322;2023-03-31T07:10:02;97938.63;;;11.90;93.12
13241;BME280;6687;47.790;7.322;2023-03-31T07:12:31;97948.44;;;11.72;95.68
13241;BME280;6687;47.790;7.322;2023-03-31T07:14:58;97932.41;;;11.97;93.83
13241;BME280;6687;47.790;7.322;2023-03-31T07:17:24;97932.72;;;11.80;94.67
13241;BME280;6687;47.790;7.322;2023-03-31T07:19:52;97943.09;;;11.82;94.16
13241;BME280;6687;47.790;7.322;2023-03-31T07:22:19;97945.56;;;11.88;93.48
13241;BME280;6687;47.790;7.322;2023-03-31T07:24:46;97958.22;;;12.03;93.28
13241;BME280;6687;47.790;7.322;2023-03-31T07:27:13;97946.81;;;12.12;93.36
13241;BME280;6687;47.790;7.322;2023-03-31T07:29:39;97973.38;;;12.25;92.36
13241;BME280;6687;47.790;7.322;2023-03-31T07:32:06;97951.75;;;12.24;91.41
13241;BME280;6687;47.790;7.322;2023-03-31T07:34:33;97965.25;;;12.40;91.70
13241;BME280;6687;47.790;7.322;2023-03-31T07:37:02;97960.13;;;12.37;91.14
13241;BME280;6687;47.790;7.322;2023-03-31T07:39:28;97958.09;;;12.51;90.02
13241;BME280;6687;47.790;7.322;2023-03-31T07:41:55;97952.00;;;12.52;88.94
13241;BME280;6687;47.790;7.322;2023-03-31T07:44:22;97950.91;;;12.63;87.51
13241;BME280;6687;47.790;7.322;2023-03-31T07:46:49;97951.53;;;12.74;86.17
13241;BME280;6687;47.790;7.322;2023-03-31T07:49:15;97965.25;;;12.79;85.67
13241;BME280;6687;47.790;7.322;2023-03-31T07:51:42;97962.25;;;12.59;85.37
13241;BME280;6687;47.790;7.322;2023-03-31T07:54:10;97952.69;;;12.61;84.63
13241;BME280;6687;47.790;7.322;2023-03-31T07:56:37;97963.59;;;12.75;83.65
13241;BME280;6687;47.790;7.322;2023-03-31T07:59:04;97954.78;;;12.82;83.02
13241;BME280;6687;47.790;7.322;2023-03-31T08:01:31;97966.91;;;12.83;82.61
13241;BME280;6687;47.790;7.322;2023-03-31T08:03:57;97966.91;;;12.83;81.19
13241;BME280;6687;47.790;7.322;2023-03-31T08:06:25;97976.03;;;13.01;80.71
13241;BME280;6687;47.790;7.322;2023-03-31T08:08:53;97978.41;;;13.09;81.03
13241;BME280;6687;47.790;7.322;2023-03-31T08:11:21;97984.41;;;13.12;79.81
13241;BME280;6687;47.790;7.322;2023-03-31T08:13:48;97981.31;;;12.97;77.42
13241;BME280;6687;47.790;7.322;2023-03-31T08:16:15;97977.19;;;13.24;77.26
13241;BME280;6687;47.790;7.322;2023-03-31T08:18:42;97977.69;;;13.04;75.51
13241;BME280;6687;47.790;7.322;2023-03-31T08:21:09;97982.06;;;13.39;76.87
13241;BME280;6687;47.790;7.322;2023-03-31T08:23:35;97972.28;;;13.49;76.55
13241;BME280;6687;47.790;7.322;2023-03-31T08:26:10;97983.59;;;13.46;75.56
13241;BME280;6687;47.790;7.322;2023-03-31T08:28:38;97978.13;;;13.57;75.10
13241;BME280;6687;47.790;7.322;2023-03-31T08:31:06;97982.22;;;13.66;75.08
13241;BME280;6687;47.790;7.322;2023-03-31T08:33:34;97991.84;;;13.62;73.42
13241;BME280;6687;47.790;7.322;2023-03-31T08:36:02;97996.03;;;13.69;72.73
13241;BME280;6687;47.790;7.322;2023-03-31T08:38:29;97998.41;;;13.77;70.10
13241;BME280;6687;47.790;7.322;2023-03-31T08:40:59;97988.78;;;13.81;69.46
13241;BME280;6687;47.790;7.322;2023-03-31T08:43:30;97996.63;;;13.79;69.79
13241;BME280;6687;47.790;7.322;2023-03-31T08:46:01;98000.66;;;13.91;69.62
13241;BME280;6687;47.790;7.322;2023-03-31T08:48:31;97992.50;;;14.03;66.51
13241;BME280;6687;47.790;7.322;2023-03-31T08:51:04;97968.44;;;14.25;67.14
13241;BME280;6687;47.790;7.322;2023-03-31T08:53:36;97966.88;;;14.49;68.77
13241;BME280;6687;47.790;7.322;2023-03-31T08:56:07;97956.00;;;14.35;69.90
13241;BME280;6687;47.790;7.322;2023-03-31T08:58:41;97958.25;;;14.47;67.64
13241;BME280;6687;47.790;7.322;2023-03-31T09:01:17;97968.47;;;14.53;63.76
13241;BME280;6687;47.790;7.322;2023-03-31T09:03:58;97964.53;;;14.69;66.25
13241;BME280;6687;47.790;7.322;2023-03-31T09:06:34;97950.84;;;14.63;63.94
13241;BME280;6687;47.790;7.322;2023-03-31T09:09:05;97960.09;;;14.73;59.34
13241;BME280;6687;47.790;7.322;2023-03-31T09:11:37;97935.13;;;14.93;58.64
13241;BME280;6687;47.790;7.322;2023-03-31T09:14:14;97924.38;;;15.02;58.67
13241;BME280;6687;47.790;7.322;2023-03-31T09:16:50;97920.06;;;15.27;58.72
13241;BME280;6687;47.790;7.322;2023-03-31T09:19:29;97929.00;;;15.20;53.98
13241;BME280;6687;47.790;7.322;2023-03-31T09:21:58;97933.22;;;15.24;53.73
13241;BME280;6687;47.790;7.322;2023-03-31T09:24:28;97931.00;;;15.39;52.96
13241;BME280;6687;47.790;7.322;2023-03-31T09:26:59;97925.78;;;15.39;53.67
13241;BME280;6687;47.790;7.322;2023-03-31T09:29:29;97909.00;;;15.46;55.03
13241;BME280;6687;47.790;7.322;2023-03-31T09:32:13;97922.28;;;15.63;54.92
13241;BME280;6687;47.790;7.322;2023-03-31T09:34:40;97913.78;;;15.83;55.56
13241;BME280;6687;47.790;7.322;2023-03-31T09:37:08;97908.00;;;15.99;56.70
13241;BME280;6687;47.790;7.322;2023-03-31T09:39:35;97894.97;;;15.97;51.51
13241;BME280;6687;47.790;7.322;2023-03-31T09:42:02;97887.50;;;16.12;52.28
13241;BME280;6687;47.790;7.322;2023-03-31T09:44:35;97877.38;;;16.02;55.95
13241;BME280;6687;47.790;7.322;2023-03-31T09:47:05;97876.13;;;15.89;56.09
13241;BME280;6687;47.790;7.322;2023-03-31T09:49:34;97867.16;;;15.96;53.49
13241;BME280;6687;47.790;7.322;2023-03-31T09:52:04;97864.22;;;15.82;53.85
13241;BME280;6687;47.790;7.322;2023-03-31T09:54:36;97866.59;;;16.12;54.15
13241;BME280;6687;47.790;7.322;2023-03-31T09:57:12;97885.34;;;15.76;53.83
13241;BME280;6687;47.790;7.322;2023-03-31T09:59:40;97877.28;;;15.82;53.94
13241;BME280;6687;47.790;7.322;2023-03-31T10:02:25;97851.50;;;15.73;57.32
13241;BME280;6687;47.790;7.322;2023-03-31T10:04:53;97870.25;;;15.59;56.30
13241;BME280;6687;47.790;7.322;2023-03-31T10:07:20;97857.56;;;15.71;56.63
13241;BME280;6687;47.790;7.322;2023-03-31T10:09:48;97836.53;;;15.78;57.99
13241;BME280;6687;47.790;7.322;2023-03-31T10:12:18;97825.41;;;15.71;59.53
13241;BME280;6687;47.790;7.322;2023-03-31T10:14:50;97827.63;;;15.58;60.41
13241;BME280;6687;47.790;7.322;2023-03-31T10:17:20;97831.22;;;15.30;57.01
13241;BME280;6687;47.790;7.322;2023-03-31T10:19:50;97827.38;;;15.41;58.50
13241;BME280;6687;47.790;7.322;2023-03-31T10:22:26;97814.78;;;15.52;57.83
13241;BME280;6687;47.790;7.322;2023-03-31T10:24:54;97816.44;;;15.55;56.01
13241;BME280;6687;47.790;7.322;2023-03-31T10:27:32;97819.03;;;15.80;56.85
13241;BME280;6687;47.790;7.322;2023-03-31T10:30:02;97821.25;;;15.65;56.00
13241;BME280;6687;47.790;7.322;2023-03-31T10:32:32;97815.50;;;15.81;56.07
13241;BME280;6687;47.790;7.322;2023-03-31T10:35:05;97821.69;;;15.78;53.04
13241;BME280;6687;47.790;7.322;2023-03-31T10:37:34;97826.59;;;15.62;51.54
13241;BME280;6687;47.790;7.322;2023-03-31T10:40:03;97820.72;;;15.81;51.93
13241;BME280;6687;47.790;7.322;2023-03-31T10:42:36;97816.78;;;15.69;51.00
13241;BME280;6687;47.790;7.322;2023-03-31T10:45:11;97828.25;;;15.88;51.49
13241;BME280;6687;47.790;7.322;2023-03-31T10:47:40;97836.56;;;16.00;53.81
13241;BME280;6687;47.790;7.322;2023-03-31T10:52:43;97831.16;;;15.81;51.01
13241;BME280;6687;47.790;7.322;2023-03-31T10:55:11;97831.06;;;15.84;50.36
13241;BME280;6687;47.790;7.322;2023-03-31T10:57:45;97883.56;;;15.51;57.48
13241;BME280;6687;47.790;7.322;2023-03-31T11:00:20;97854.50;;;14.58;64.68
13241;BME280;6687;47.790;7.322;2023-03-31T11:03:18;97845.75;;;14.61;65.17
13241;BME280;6687;47.790;7.322;2023-03-31T11:05:49;97825.78;;;15.11;64.07
13241;BME280;6687;47.790;7.322;2023-03-31T11:08:31;97811.31;;;15.03;64.73
13241;BME280;6687;47.790;7.322;2023-03-31T11:11:12;97800.44;;;15.15;64.35
13241;BME280;6687;47.790;7.322;2023-03-31T11:13:44;97806.78;;;14.83;64.13
13241;BME280;6687;47.790;7.322;2023-03-31T11:16:17;97817.06;;;14.87;63.42
13241;BME280;6687;47.790;7.322;2023-03-31T11:19:01;97850.19;;;15.10;63.67
13241;BME280;6687;47.790;7.322;2023-03-31T11:21:37;97859.28;;;14.72;62.88
13241;BME280;6687;47.790;7.322;2023-03-31T11:24:16;97910.09;;;14.87;62.66
13241;BME280;6687;47.790;7.322;2023-03-31T11:26:53;97898.63;;;14.06;60.80
13241;BME280;6687;47.790;7.322;2023-03-31T11:29:31;97869.06;;;14.65;62.52
13241;BME280;6687;47.790;7.322;2023-03-31T11:32:13;97861.84;;;14.17;60.32
13241;BME280;6687;47.790;7.322;2023-03-31T11:34:52;97837.44;;;13.91;62.27
13241;BME280;6687;47.790;7.322;2023-03-31T11:37:28;97798.22;;;13.38;60.34
13241;BME280;6687;47.790;7.322;2023-03-31T11:40:13;97799.47;;;13.23;57.12
13241;BME280;6687;47.790;7.322;2023-03-31T11:42:47;97790.03;;;13.50;55.60
13241;BME280;6687;47.790;7.322;2023-03-31T11:45:18;97787.78;;;13.69;53.21
13241;BME280;6687;47.790;7.322;2023-03-31T11:47:49;97805.16;;;14.25;53.04
13241;BME280;6687;47.790;7.322;2023-03-31T11:50:20;97809.75;;;14.72;54.11
13241;BME280;6687;47.790;7.322;2023-03-31T11:52:55;97797.25;;;15.07;52.90
13241;BME280;6687;47.790;7.322;2023-03-31T11:55:26;97801.50;;;15.35;52.08
13241;BME280;6687;47.790;7.322;2023-03-31T11:58:00;97787.91;;;15.50;52.22
13241;BME280;6687;47.790;7.322;2023-03-31T12:00:29;97772.66;;;15.61;54.21
13241;BME280;6687;47.790;7.322;2023-03-31T12:03:01;97773.03;;;15.76;53.43
13241;BME280;6687;47.790;7.322;2023-03-31T12:05:37;97763.66;;;15.94;53.53
13241;BME280;6687;47.790;7.322;2023-03-31T12:08:07;97747.88;;;15.95;53.36
13241;BME280;6687;47.790;7.322;2023-03-31T12:10:40;97724.88;;;15.83;51.69
13241;BME280;6687;47.790;7.322;2023-03-31T12:13:28;97740.78;;;16.21;53.22
13241;BME280;6687;47.790;7.322;2023-03-31T12:16:00;97726.19;;;16.15;54.47
13241;BME280;6687;47.790;7.322;2023-03-31T12:18:33;97734.13;;;16.34;52.34
13241;BME280;6687;47.790;7.322;2023-03-31T12:21:04;97732.56;;;16.30;54.27
13241;BME280;6687;47.790;7.322;2023-03-31T12:23:35;97711.84;;;16.25;49.88
13241;BME280;6687;47.790;7.322;2023-03-31T12:26:12;97711.81;;;16.47;50.04
13241;BME280;6687;47.790;7.322;2023-03-31T12:28:42;97714.25;;;16.30;48.77
13241;BME280;6687;47.790;7.322;2023-03-31T12:31:14;97711.91;;;16.44;48.26
13241;BME280;6687;47.790;7.322;2023-03-31T12:33:46;97707.84;;;16.78;49.73
13241;BME280;6687;47.790;7.322;2023-03-31T12:36:25;97711.69;;;16.92;48.00
13241;BME280;6687;47.790;7.322;2023-03-31T12:39:05;97707.06;;;16.76;47.75
13241;BME280;6687;47.790;7.322;2023-03-31T12:41:43;97671.75;;;17.07;48.84
13241;BME280;6687;47.790;7.322;2023-03-31T12:44:37;97682.41;;;17.02;49.73
13241;BME280;6687;47.790;7.322;2023-03-31T12:47:26;97687.72;;;16.80;48.47
13241;BME280;6687;47.790;7.322;2023-03-31T12:50:10;97691.47;;;17.14;49.42
13241;BME280;6687;47.790;7.322;2023-03-31T12:52:46;97704.44;;;17.17;47.05
13241;BME280;6687;47.790;7.322;2023-03-31T12:55:30;97696.88;;;17.11;45.59
13241;BME280;6687;47.790;7.322;2023-03-31T12:58:36;97693.19;;;17.15;46.51
13241;BME280;6687;47.790;7.322;2023-03-31T13:01:05;97709.47;;;17.22;45.23
13241;BME280;6687;47.790;7.322;2023-03-31T13:03:42;97747.00;;;16.81;46.00
13241;BME280;6687;47.790;7.322;2023-03-31T13:06:11;97721.19;;;16.31;50.88
13241;BME280;6687;47.790;7.322;2023-03-31T13:09:00;97830.00;;;14.64;59.85
13241;BME280;6687;47.790;7.322;2023-03-31T13:11:39;97900.19;;;12.46;82.23
13241;BME280;6687;47.790;7.322;2023-03-31T13:14:13;97882.75;;;11.70;82.71
13241;BME280;6687;47.790;7.322;2023-03-31T13:16:42;97864.13;;;11.50;85.88
13241;BME280;6687;47.790;7.322;2023-03-31T13:19:12;97873.69;;;11.00;86.04
13241;BME280;6687;47.790;7.322;2023-03-31T13:21:53;97863.28;;;11.03;86.84
13241;BME280;6687;47.790;7.322;2023-03-31T13:24:22;97851.88;;;10.62;87.20
13241;BME280;6687;47.790;7.322;2023-03-31T13:26:50;97853.06;;;10.93;87.50
13241;BME280;6687;47.790;7.322;2023-03-31T13:29:21;97813.66;;;11.21;87.46
13241;BME280;6687;47.790;7.322;2023-03-31T13:35:02;97766.13;;;11.64;84.25
13241;BME280;6687;47.790;7.322;2023-03-31T13:37:47;97783.41;;;12.04;86.21
13241;BME280;6687;47.790;7.322;2023-03-31T13:40:30;97783.56;;;12.36;85.79
13241;BME280;6687;47.790;7.322;2023-03-31T13:43:27;97821.94;;;12.59;87.10
13241;BME280;6687;47.790;7.322;2023-03-31T13:48:54;97837.53;;;12.21;88.42
13241;BME280;6687;47.790;7.322;2023-03-31T13:51:33;97843.66;;;12.19;87.38
13241;BME280;6687;47.790;7.322;2023-03-31T13:57:30;97852.16;;;11.43;89.42
13241;BME280;6687;47.790;7.322;2023-03-31T14:00:23;97842.47;;;11.51;89.59
13241;BME280;6687;47.790;7.322;2023-03-31T14:03:04;97829.16;;;12.10;86.14
13241;BME280;6687;47.790;7.322;2023-03-31T14:05:39;97842.50;;;12.32;83.96
13241;BME280;6687;47.790;7.322;2023-03-31T14:08:10;97845.88;;;11.98;85.84
13241;BME280;6687;47.790;7.322;2023-03-31T14:10:40;97803.75;;;12.59;82.28
13241;BME280;6687;47.790;7.322;2023-03-31T14:13:10;97811.97;;;13.09;79.40
13241;BME280;6687;47.790;7.322;2023-03-31T14:15:39;97806.56;;;13.17;78.47
13241;BME280;6687;47.790;7.322;2023-03-31T14:18:09;97796.81;;;13.25;78.05
13241;BME280;6687;47.790;7.322;2023-03-31T14:20:45;97789.59;;;13.36;78.90
13241;BME280;6687;47.790;7.322;2023-03-31T14:23:33;97788.56;;;13.71;76.74
13241;BME280;6687;47.790;7.322;2023-03-31T14:26:05;97785.88;;;13.75;76.33
13241;BME280;6687;47.790;7.322;2023-03-31T14:29:00;97781.72;;;13.97;77.53
13241;BME280;6687;47.790;7.322;2023-03-31T14:31:40;97773.75;;;14.02;77.97
13241;BME280;6687;47.790;7.322;2023-03-31T14:34:40;97769.47;;;14.27;76.90
13241;BME280;6687;47.790;7.322;2023-03-31T14:37:12;97772.25;;;14.23;76.13
13241;BME280;6687;47.790;7.322;2023-03-31T14:39:43;97776.09;;;14.38;75.60
13241;BME280;6687;47.790;7.322;2023-03-31T14:42:13;97774.09;;;14.46;75.59
13241;BME280;6687;47.790;7.322;2023-03-31T14:44:43;97745.28;;;14.50;75.18
13241;BME280;6687;47.790;7.322;2023-03-31T14:47:13;97744.19;;;14.58;74.68
13241;BME280;6687;47.790;7.322;2023-03-31T14:49:40;97736.47;;;14.55;74.55
13241;BME280;6687;47.790;7.322;2023-03-31T14:52:13;97741.88;;;14.48;75.42
13241;BME280;6687;47.790;7.322;2023-03-31T14:54:40;97735.69;;;14.51;75.77
13241;BME280;6687;47.790;7.322;2023-03-31T14:57:12;97741.06;;;14.73;73.63
13241;BME280;6687;47.790;7.322;2023-03-31T14:59:44;97727.63;;;14.84;74.16
13241;BME280;6687;47.790;7.322;2023-03-31T15:02:15;97725.69;;;14.90;72.40
13241;BME280;6687;47.790;7.322;2023-03-31T15:04:42;97738.78;;;14.89;72.08
13241;BME280;6687;47.790;7.322;2023-03-31T15:07:12;97732.94;;;14.82;71.29
13241;BME280;6687;47.790;7.322;2023-03-31T15:09:40;97740.25;;;15.43;70.12
13241;BME280;6687;47.790;7.322;2023-03-31T15:12:12;97744.63;;;15.19;70.17
13241;BME280;6687;47.790;7.322;2023-03-31T15:14:45;97736.06;;;15.39;68.71
13241;BME280;6687;47.790;7.322;2023-03-31T15:17:21;97729.88;;;15.42;68.72
13241;BME280;6687;47.790;7.322;2023-03-31T15:19:54;97735.44;;;15.80;67.53
13241;BME280;6687;47.790;7.322;2023-03-31T15:22:23;97736.00;;;15.88;66.96
13241;BME280;6687;47.790;7.322;2023-03-31T15:24:50;97719.34;;;15.45;65.23
13241;BME280;6687;47.790;7.322;2023-03-31T15:27:21;97749.28;;;15.58;66.57
13241;BME280;6687;47.790;7.322;2023-03-31T15:29:54;97729.25;;;15.35;63.08
13241;BME280;6687;47.790;7.322;2023-03-31T15:32:25;97734.09;;;15.22;65.89
13241;BME280;6687;47.790;7.322;2023-03-31T15:34:52;97738.66;;;15.63;64.47
13241;BME280;6687;47.790;7.322;2023-03-31T15:37:21;97729.66;;;15.48;64.79
13241;BME280;6687;47.790;7.322;2023-03-31T15:39:48;97733.72;;;15.79;64.10
13241;BME280;6687;47.790;7.322;2023-03-31T15:42:15;97721.13;;;15.66;62.50
13241;BME280;6687;47.790;7.322;2023-03-31T15:44:44;97723.91;;;15.16;58.24
13241;BME280;6687;47.790;7.322;2023-03-31T15:47:18;97722.00;;;15.43;57.46
13241;BME280;6687;47.790;7.322;2023-03-31T15:49:50;97721.66;;;15.52;58.78
13241;BME280;6687;47.790;7.322;2023-03-31T15:52:26;97728.41;;;16.04;60.76
13241;BME280;6687;47.790;7.322;2023-03-31T15:54:53;97713.78;;;15.54;60.98
13241;BME280;6687;47.790;7.322;2023-03-31T15:57:30;97727.25;;;15.42;56.57
13241;BME280;6687;47.790;7.322;2023-03-31T15:59:57;97733.97;;;15.25;59.08
13241;BME280;6687;47.790;7.322;2023-03-31T16:02:30;97742.00;;;15.66;58.32
13241;BME280;6687;47.790;7.322;2023-03-31T16:05:02;97754.31;;;15.16;56.19
13241;BME280;6687;47.790;7.322;2023-03-31T16:07:32;97748.94;;;14.97;56.04
13241;BME280;6687;47.790;7.322;2023-03-31T16:10:02;97749.91;;;15.18;58.15
13241;BME280;6687;47.790;7.322;2023-03-31T16:12:32;97761.78;;;15.50;57.77
13241;BME280;6687;47.790;7.322;2023-03-31T16:15:02;97768.13;;;15.43;59.39
13241;BME280;6687;47.790;7.322;2023-03-31T16:17:35;97767.56;;;15.58;58.52
13241;BME280;6687;47.790;7.322;2023-03-31T16:20:05;97755.66;;;15.51;61.09
13241;BME280;6687;47.790;7.322;2023-03-31T16:22:37;97774.66;;;15.31;56.16
13241;BME280;6687;47.790;7.322;2023-03-31T16:25:11;97766.22;;;15.48;56.47
13241;BME280;6687;47.790;7.322;2023-03-31T16:27:40;97770.75;;;15.43;56.57
13241;BME280;6687;47.790;7.322;2023-03-31T16:30:11;97758.34;;;15.71;58.64
13241;BME280;6687;47.790;7.322;2023-03-31T16:32:57;97774.28;;;14.93;56.26
13241;BME280;6687;47.790;7.322;2023-03-31T16:35:29;97782.25;;;15.37;57.83
13241;BME280;6687;47.790;7.322;2023-03-31T16:37:56;97808.81;;;15.00;63.00
13241;BME280;6687;47.790;7.322;2023-03-31T16:40:23;97797.44;;;15.02;63.34
13241;BME280;6687;47.790;7.322;2023-03-31T16:43:09;97804.75;;;14.38;63.90
13241;BME280;6687;47.790;7.322;2023-03-31T16:45:37;97804.69;;;14.67;64.20
13241;BME280;6687;47.790;7.322;2023-03-31T16:48:05;97806.63;;;14.87;62.51
13241;BME280;6687;47.790;7.322;2023-03-31T16:50:32;97795.50;;;15.32;63.71
13241;BME280;6687;47.790;7.322;2023-03-31T16:52:59;97802.78;;;14.98;59.16
13241;BME280;6687;47.790;7.322;2023-03-31T16:55:27;97811.72;;;15.41;60.84
13241;BME280;6687;47.790;7.322;2023-03-31T16:57:56;97813.31;;;15.45;60.20
13241;BME280;6687;47.790;7.322;2023-03-31T17:00:23;97811.59;;;15.67;61.40
13241;BME280;6687;47.790;7.322;2023-03-31T17:02:49;97819.31;;;15.70;61.59
13241;BME280;6687;47.790;7.322;2023-03-31T17:05:17;97820.53;;;15.85;61.21
13241;BME280;6687;47.790;7.322;2023-03-31T17:07:45;97824.28;;;15.55;60.86
13241;BME280;6687;47.790;7.322;2023-03-31T17:10:12;97823.41;;;15.54;62.31
13241;BME280;6687;47.790;7.322;2023-03-31T17:12:38;97810.56;;;15.71;61.12
13241;BME280;6687;47.790;7.322;2023-03-31T17:15:06;97800.13;;;15.71;61.44
13241;BME280;6687;47.790;7.322;2023-03-31T17:17:33;97813.00;;;15.29;62.16
13241;BME280;6687;47.790;7.322;2023-03-31T17:20:01;97815.34;;;15.37;62.93
13241;BME280;6687;47.790;7.322;2023-03-31T17:22:30;97826.75;;;14.56;66.19
13241;BME280;6687;47.790;7.322;2023-03-31T17:24:56;97834.91;;;14.46;66.80
13241;BME280;6687;47.790;7.322;2023-03-31T17:27:23;97823.22;;;14.03;67.97
13241;BME280;6687;47.790;7.322;2023-03-31T17:29:50;97836.06;;;14.36;67.59
13241;BME280;6687;47.790;7.322;2023-03-31T17:32:17;97823.03;;;14.36;67.80
13241;BME280;6687;47.790;7.322;2023-03-31T17:34:43;97814.16;;;14.97;65.96
13241;BME280;6687;47.790;7.322;2023-03-31T17:37:12;97824.13;;;14.84;66.08
13241;BME280;6687;47.790;7.322;2023-03-31T17:39:40;97821.97;;;14.43;67.15
13241;BME280;6687;47.790;7.322;2023-03-31T17:42:07;97824.09;;;14.59;66.69
13241;BME280;6687;47.790;7.322;2023-03-31T17:44:34;97822.38;;;14.84;65.24
13241;BME280;6687;47.790;7.322;2023-03-31T17:47:00;97827.59;;;14.58;65.77
13241;BME280;6687;47.790;7.322;2023-03-31T17:49:27;97825.59;;;14.66;64.26
13241;BME280;6687;47.790;7.322;2023-03-31T17:51:54;97833.03;;;14.50;64.33
13241;BME280;6687;47.790;7.322;2023-03-31T17:54:21;97839.63;;;14.62;65.01
13241;BME280;6687;47.790;7.322;2023-03-31T17:56:49;97828.41;;;14.60;64.12
13241;BME280;6687;47.790;7.322;2023-03-31T17:59:17;97835.13;;;14.67;63.50
13241;BME280;6687;47.790;7.322;2023-03-31T18:01:44;97837.19;;;14.57;63.26
13241;BME280;6687;47.790;7.322;2023-03-31T18:04:11;97839.78;;;14.57;62.16
13241;BME280;6687;47.790;7.322;2023-03-31T18:06:39;97845.41;;;14.43;62.20
13241;BME280;6687;47.790;7.322;2023-03-31T18:09:06;97849.44;;;14.53;62.22
13241;BME280;6687;47.790;7.322;2023-03-31T18:11:33;97849.53;;;14.22;61.55
13241;BME280;6687;47.790;7.322;2023-03-31T18:14:02;97856.72;;;14.42;62.23
13241;BME280;6687;47.790;7.322;2023-03-31T18:16:29;97850.69;;;14.13;61.32
13241;BME280;6687;47.790;7.322;2023-03-31T18:18:56;97861.28;;;13.78;60.81
13241;BME280;6687;47.790;7.322;2023-03-31T18:21:23;97856.47;;;13.64;61.17
13241;BME280;6687;47.790;7.322;2023-03-31T18:23:50;97860.84;;;13.93;63.60
13241;BME280;6687;47.790;7.322;2023-03-31T18:26:20;97853.91;;;13.62;61.82
13241;BME280;6687;47.790;7.322;2023-03-31T18:28:48;97854.50;;;13.41;61.96
13241;BME280;6687;47.790;7.322;2023-03-31T18:31:16;97856.44;;;13.65;62.73
13241;BME280;6687;47.790;7.322;2023-03-31T18:33:42;97858.69;;;13.46;62.35
13241;BME280;6687;47.790;7.322;2023-03-31T18:36:14;97856.81;;;13.83;62.84
13241;BME280;6687;47.790;7.322;2023-03-31T18:38:42;97862.00;;;13.53;62.04
13241;BME280;6687;47.790;7.322;2023-03-31T18:41:08;97859.53;;;13.78;62.99
13241;BME280;6687;47.790;7.322;2023-03-31T18:43:36;97869.41;;;13.67;62.67
13241;BME280;6687;47.790;7.322;2023-03-31T18:46:02;97871.53;;;13.52;61.44
13241;BME280;6687;47.790;7.322;2023-03-31T18:48:31;97875.81;;;13.55;60.45
13241;BME280;6687;47.790;7.322;2023-03-31T18:50:59;97879.59;;;13.75;62.75
13241;BME280;6687;47.790;7.322;2023-03-31T18:53:26;97885.44;;;13.83;62.60
13241;BME280;6687;47.790;7.322;2023-03-31T18:55:54;97884.06;;;13.71;61.56
13241;BME280;6687;47.790;7.322;2023-03-31T18:58:21;97884.88;;;13.71;62.31
13241;BME280;6687;47.790;7.322;2023-03-31T19:00:48;97889.66;;;13.87;61.69
13241;BME280;6687;47.790;7.322;2023-03-31T19:03:15;97891.72;;;13.76;61.86
13241;BME280;6687;47.790;7.322;2023-03-31T19:05:44;97901.00;;;13.84;62.04
13241;BME280;6687;47.790;7.322;2023-03-31T19:08:10;97895.06;;;13.81;61.71
13241;BME280;6687;47.790;7.322;2023-03-31T19:10:37;97911.38;;;13.86;61.50
13241;BME280;6687;47.790;7.322;2023-03-31T19:13:04;97916.50;;;13.58;62.01
13241;BME280;6687;47.790;7.322;2023-03-31T19:15:32;97923.03;;;13.72;61.83
13241;BME280;6687;47.790;7.322;2023-03-31T19:18:01;97934.91;;;13.83;61.59
13241;BME280;6687;47.790;7.322;2023-03-31T19:20:28;97937.28;;;13.90;61.63
13241;BME280;6687;47.790;7.322;2023-03-31T19:22:56;97946.78;;;13.93;61.44
13241;BME280;6687;47.790;7.322;2023-03-31T19:25:22;97934.81;;;13.86;61.33
13241;BME280;6687;47.790;7.322;2023-03-31T19:27:49;97953.06;;;13.53;61.42
13241;BME280;6687;47.790;7.322;2023-03-31T19:30:17;97951.19;;;13.58;60.99
13241;BME280;6687;47.790;7.322;2023-03-31T19:32:45;97943.97;;;13.69;61.60
13241;BME280;6687;47.790;7.322;2023-03-31T19:35:13;97936.97;;;13.71;61.12
13241;BME280;6687;47.790;7.322;2023-03-31T19:37:39;97947.88;;;13.53;62.20
13241;BME280;6687;47.790;7.322;2023-03-31T19:40:08;97940.38;;;13.73;61.68
13241;BME280;6687;47.790;7.322;2023-03-31T19:42:35;97933.44;;;13.72;61.62
13241;BME280;6687;47.790;7.322;2023-03-31T19:45:03;97930.00;;;13.72;61.39
13241;BME280;6687;47.790;7.322;2023-03-31T19:47:30;97935.41;;;13.64;61.80
13241;BME280;6687;47.790;7.322;2023-03-31T19:49:57;97936.34;;;13.27;61.70
13241;BME280;6687;47.790;7.322;2023-03-31T19:52:23;97941.84;;;13.51;62.26